createdAt,value
2023-04-05T00:01:28.553Z,1.65
2023-04-05T00:04:08.330Z,1.88
2023-04-05T00:06:47.076Z,1.93
2023-04-05T00:09:17.398Z,1.74
2023-04-05T00:11:54.798Z,1.52
2023-04-05T00:17:26.883Z,1.45
2023-04-05T00:19:57.348Z,1.43
2023-04-05T00:22:37.579Z,1.13
2023-04-05T00:25:09.752Z,1.16
2023-04-05T00:27:43.610Z,1.13
2023-04-05T00:30:21.254Z,1.22
2023-04-05T00:32:58.778Z,1.21
2023-04-05T00:35:33.380Z,1.72
2023-04-05T00:38:09.515Z,1.74
2023-04-05T00:40:39.971Z,1.76
2023-04-05T00:43:10.928Z,1.93
2023-04-05T00:45:44.121Z,1.80
2023-04-05T00:48:22.992Z,1.69
2023-04-05T00:50:56.376Z,1.72
2023-04-05T00:53:34.588Z,2.02
2023-04-05T00:56:11.654Z,1.79
2023-04-05T00:58:42.966Z,1.68
2023-04-05T01:01:29.794Z,1.65
2023-04-05T01:04:03.483Z,1.83
2023-04-05T01:07:16.674Z,1.91
2023-04-05T01:10:10.229Z,1.93
2023-04-05T01:12:48.357Z,1.68
2023-04-05T01:15:20.116Z,1.78
2023-04-05T01:17:51.769Z,1.79
2023-04-05T01:20:26.255Z,1.57
2023-04-05T01:26:54.211Z,1.67
2023-04-05T01:29:45.355Z,1.62
2023-04-05T01:33:01.235Z,1.77
2023-04-05T01:36:02.344Z,1.57
2023-04-05T01:38:44.385Z,1.85
2023-04-05T01:41:16.706Z,1.94
2023-04-05T01:44:02.725Z,1.79
2023-04-05T01:46:36.392Z,1.67
2023-04-05T01:49:17.923Z,1.66
2023-04-05T01:51:51.542Z,1.85
2023-04-05T01:54:23.066Z,1.56
2023-04-05T01:57:03.529Z,1.55
2023-04-05T01:59:35.518Z,1.60
2023-04-05T02:02:09.282Z,1.86
2023-04-05T02:04:45.223Z,1.55
2023-04-05T02:07:17.057Z,1.60
2023-04-05T02:09:48.129Z,1.48
2023-04-05T02:12:22.391Z,1.15
2023-04-05T02:14:59.099Z,1.14
2023-04-05T02:17:34.438Z,1.14
2023-04-05T02:20:12.979Z,1.24
2023-04-05T02:22:48.490Z,1.35
2023-04-05T02:25:16.898Z,1.36
2023-04-05T02:27:50.398Z,1.07
2023-04-05T02:30:29.062Z,0.87
2023-04-05T02:33:05.520Z,1.00
2023-04-05T02:35:38.573Z,0.96
2023-04-05T02:38:10.439Z,0.85
2023-04-05T02:43:28.323Z,0.92
2023-04-05T02:45:59.223Z,0.77
2023-04-05T02:48:33.000Z,0.67
2023-04-05T02:51:06.610Z,0.42
2023-04-05T02:53:39.176Z,0.69
2023-04-05T02:56:28.315Z,0.77
2023-04-05T02:58:58.873Z,0.45
2023-04-05T03:01:33.482Z,0.52
2023-04-05T03:04:10.043Z,0.29
2023-04-05T03:06:38.638Z,0.29
2023-04-05T03:09:14.127Z,0.37
2023-04-05T03:11:43.745Z,0.60
2023-04-05T03:14:24.064Z,0.33
2023-04-05T03:17:10.471Z,0.20
2023-04-05T03:19:42.646Z,-0.12
2023-04-05T03:22:26.690Z,-0.12
2023-04-05T03:24:57.607Z,0.34
2023-04-05T03:27:37.416Z,-0.01
2023-04-05T03:30:22.251Z,-0.10
2023-04-05T03:33:10.505Z,0.12
2023-04-05T03:36:02.017Z,0.36
2023-04-05T03:38:34.709Z,0.20
2023-04-05T03:41:28.775Z,0.21
2023-04-05T03:44:08.049Z,0.27
2023-04-05T03:46:42.683Z,0.01
2023-04-05T03:52:00.633Z,-0.50
2023-04-05T03:54:30.791Z,-0.45
2023-04-05T03:57:08.842Z,-0.35
2023-04-05T04:02:23.307Z,-0.45
2023-04-05T04:04:54.214Z,-0.74
2023-04-05T04:07:30.439Z,-0.97
2023-04-05T04:09:58.802Z,-0.64
2023-04-05T04:12:36.468Z,-0.38
2023-04-05T04:15:11.232Z,-0.79
2023-04-05T04:18:09.217Z,-0.62
2023-04-05T04:21:19.521Z,-0.36
2023-04-05T04:24:02.114Z,-0.27
2023-04-05T04:26:57.326Z,-0.48
2023-04-05T04:29:58.042Z,-0.43
2023-04-05T04:33:03.901Z,-0.67
2023-04-05T04:36:13.565Z,-0.26
2023-04-05T04:39:30.575Z,-0.51
2023-04-05T04:42:36.657Z,-0.38
2023-04-05T04:45:34.748Z,-0.59
2023-04-05T04:48:23.103Z,-0.74
2023-04-05T04:51:15.537Z,-0.72
2023-04-05T04:53:59.914Z,-0.88
2023-04-05T04:56:35.189Z,-0.67
2023-04-05T04:59:12.844Z,-0.62
2023-04-05T05:01:52.466Z,-0.79
2023-04-05T05:04:24.260Z,-0.64
2023-04-05T05:07:05.198Z,-0.57
2023-04-05T05:09:39.275Z,-1.02
2023-04-05T05:12:16.390Z,-0.76
2023-04-05T05:14:47.370Z,-0.73
2023-04-05T05:17:19.999Z,-0.80
2023-04-05T05:19:51.572Z,-0.82
2023-04-05T05:22:22.070Z,-0.93
2023-04-05T05:24:52.725Z,-0.81
2023-04-05T05:27:23.164Z,-0.68
2023-04-05T05:29:54.479Z,-0.61
2023-04-05T05:32:32.660Z,-0.32
2023-04-05T05:35:03.021Z,-0.04
2023-04-05T05:37:37.949Z,-0.28
2023-04-05T05:40:08.039Z,0.03
2023-04-05T05:42:44.307Z,0.22
2023-04-05T05:45:13.377Z,0.02
2023-04-05T05:47:48.516Z,0.20
2023-04-05T05:50:22.925Z,0.38
2023-04-05T05:52:55.897Z,0.32
2023-04-05T05:55:24.977Z,0.03
2023-04-05T05:57:59.345Z,0.48
2023-04-05T06:00:30.316Z,0.26
2023-04-05T06:03:03.309Z,0.47
2023-04-05T06:05:33.899Z,0.49
2023-04-05T06:08:08.267Z,0.74
2023-04-05T06:10:53.541Z,0.95
2023-04-05T06:13:24.873Z,0.79
2023-04-05T06:16:03.295Z,1.19
2023-04-05T06:18:34.720Z,0.94
2023-04-05T06:23:55.009Z,1.14
2023-04-05T06:26:28.772Z,1.24
2023-04-05T06:29:00.229Z,1.29
2023-04-05T06:31:35.244Z,1.89
2023-04-05T06:34:11.772Z,1.95
2023-04-05T06:36:43.244Z,1.98
2023-04-05T06:39:23.839Z,1.98
2023-04-05T06:44:49.193Z,2.00
2023-04-05T06:47:25.365Z,2.06
2023-04-05T06:49:54.561Z,1.79
2023-04-05T06:52:26.836Z,2.12
2023-04-05T06:55:10.831Z,2.47
2023-04-05T06:57:42.187Z,2.47
2023-04-05T07:00:21.569Z,2.24
2023-04-05T07:02:57.164Z,2.56
2023-04-05T07:05:33.944Z,2.56
2023-04-05T07:08:14.267Z,2.42
2023-04-05T07:10:49.106Z,2.64
2023-04-05T07:13:26.425Z,2.88
2023-04-05T07:16:05.879Z,2.93
2023-04-05T07:18:33.749Z,2.77
2023-04-05T07:21:17.483Z,3.05
2023-04-05T07:23:51.801Z,3.09
2023-04-05T07:29:27.395Z,3.16
2023-04-05T07:31:57.822Z,3.27
2023-04-05T07:34:38.239Z,3.28
2023-04-05T07:37:14.550Z,3.44
2023-04-05T07:39:49.152Z,3.55
2023-04-05T07:42:35.075Z,3.59
2023-04-05T07:45:06.957Z,3.80
2023-04-05T07:47:40.481Z,3.87
2023-04-05T07:50:12.050Z,3.40
2023-04-05T07:52:45.828Z,3.50
2023-04-05T07:55:25.267Z,3.47
2023-04-05T07:58:01.037Z,3.45
2023-04-05T08:00:34.752Z,3.70
2023-04-05T08:03:05.944Z,4.01
2023-04-05T08:05:37.288Z,4.22
2023-04-05T08:08:14.139Z,4.19
2023-04-05T08:10:45.168Z,4.14
2023-04-05T08:13:19.063Z,4.13
2023-04-05T08:15:50.240Z,4.61
2023-04-05T08:18:24.632Z,4.66
2023-04-05T08:20:58.101Z,4.50
2023-04-05T08:23:31.654Z,4.50
2023-04-05T08:26:08.006Z,5.06
2023-04-05T08:28:39.305Z,5.39
2023-04-05T08:34:02.470Z,5.44
2023-04-05T08:39:20.660Z,5.55
2023-04-05T08:42:05.733Z,5.56
2023-04-05T08:44:42.381Z,5.56
2023-04-05T08:47:28.362Z,5.26
2023-04-05T08:49:59.525Z,5.99
2023-04-05T08:55:15.955Z,6.50
2023-04-05T08:57:51.878Z,6.27
2023-04-05T09:00:27.437Z,6.12
2023-04-05T09:03:08.184Z,6.16
2023-04-05T09:05:40.962Z,6.31
2023-04-05T09:08:12.322Z,6.58
2023-04-05T09:10:44.660Z,6.56
2023-04-05T09:13:16.294Z,6.50
2023-04-05T09:15:57.410Z,6.72
2023-04-05T09:18:39.000Z,7.28
2023-04-05T09:21:10.581Z,7.33
2023-04-05T09:23:58.686Z,7.24
2023-04-05T09:26:32.554Z,7.58
2023-04-05T09:29:04.463Z,6.84
2023-04-05T09:31:37.751Z,6.88
2023-04-05T09:34:28.757Z,7.05
2023-04-05T09:36:59.290Z,6.73
2023-04-05T09:39:31.762Z,7.17
2023-04-05T09:42:21.696Z,7.83
2023-04-05T09:45:07.406Z,7.70
2023-04-05T09:48:01.579Z,8.15
2023-04-05T09:53:26.420Z,7.83
2023-04-05T09:56:03.662Z,7.62
2023-04-05T09:58:36.080Z,8.74
2023-04-05T10:01:16.807Z,8.56
2023-04-05T10:03:54.643Z,8.38
2023-04-05T10:06:23.766Z,8.53
2023-04-05T10:09:05.286Z,8.66
2023-04-05T10:11:41.164Z,9.18
2023-04-05T10:14:15.583Z,9.00
2023-04-05T10:17:21.107Z,8.96
2023-04-05T10:20:23.108Z,9.44
2023-04-05T10:23:16.831Z,9.74
2023-04-05T10:26:13.716Z,10.23
2023-04-05T10:28:50.566Z,10.01
2023-04-05T10:31:41.446Z,9.56
2023-04-05T10:34:29.151Z,9.88
2023-04-05T10:37:13.064Z,8.79
2023-04-05T10:39:48.951Z,9.33
2023-04-05T10:42:46.784Z,10.30
2023-04-05T10:45:24.633Z,10.22
2023-04-05T10:48:32.611Z,9.68
2023-04-05T10:51:07.492Z,9.68
2023-04-05T10:53:38.866Z,9.76
2023-04-05T10:56:07.367Z,9.78
2023-04-05T10:58:50.576Z,10.47
2023-04-05T11:01:23.743Z,9.86
2023-04-05T11:03:58.182Z,9.63
2023-04-05T11:06:37.497Z,10.11
2023-04-05T11:09:24.757Z,10.59
2023-04-05T11:11:56.284Z,10.82
2023-04-05T11:14:27.193Z,10.72
2023-04-05T11:16:58.926Z,10.98
2023-04-05T11:19:49.894Z,10.72
2023-04-05T11:22:34.166Z,11.86
2023-04-05T11:25:05.427Z,11.90
2023-04-05T11:27:37.595Z,11.54
2023-04-05T11:30:09.700Z,11.73
2023-04-05T11:32:46.496Z,11.85
2023-04-05T11:35:26.321Z,11.69
2023-04-05T11:38:14.074Z,11.47
2023-04-05T11:40:45.735Z,11.46
2023-04-05T11:43:16.887Z,11.52
2023-04-05T11:45:47.518Z,12.01
2023-04-05T11:48:18.259Z,12.08
2023-04-05T11:50:54.082Z,12.17
2023-04-05T11:53:35.820Z,11.81
2023-04-05T11:56:18.161Z,12.51
2023-04-05T11:58:55.745Z,12.74
2023-04-05T12:01:27.686Z,12.82
2023-04-05T12:04:03.669Z,13.14
2023-04-05T12:06:34.386Z,12.99
2023-04-05T12:09:10.845Z,13.50
2023-04-05T12:11:41.398Z,13.88
2023-04-05T12:14:12.691Z,13.41
2023-04-05T12:16:57.331Z,13.29
2023-04-05T12:19:31.545Z,13.13
2023-04-05T12:22:03.095Z,13.69
2023-04-05T12:24:39.362Z,14.09
2023-04-05T12:30:19.153Z,14.44
2023-04-05T12:33:06.265Z,14.65
2023-04-05T12:35:40.536Z,13.83
2023-04-05T12:38:13.276Z,15.53
2023-04-05T12:40:51.566Z,19.79
2023-04-05T12:43:23.046Z,20.87
2023-04-05T12:46:15.035Z,20.86
2023-04-05T12:48:46.224Z,17.74
2023-04-05T12:51:23.153Z,16.13
2023-04-05T12:53:56.637Z,15.81
2023-04-05T12:56:27.229Z,14.13
2023-04-05T12:58:59.157Z,14.68
2023-04-05T13:01:33.980Z,15.69
2023-04-05T13:04:16.570Z,16.57
2023-04-05T13:06:55.531Z,16.49
2023-04-05T13:09:26.768Z,17.20
2023-04-05T13:11:56.052Z,16.79
2023-04-05T13:14:27.649Z,16.45
2023-04-05T13:19:47.180Z,16.13
2023-04-05T13:22:18.190Z,17.45
2023-04-05T13:24:51.964Z,19.16
2023-04-05T13:27:32.977Z,19.27
2023-04-05T13:30:06.973Z,20.87
2023-04-05T13:32:54.026Z,22.11
2023-04-05T13:35:30.004Z,20.22
2023-04-05T13:38:04.298Z,19.56
2023-04-05T13:40:36.892Z,18.77
2023-04-05T13:43:07.370Z,20.72
2023-04-05T13:45:42.185Z,20.79
2023-04-05T13:48:14.445Z,23.78
2023-04-05T13:50:46.113Z,24.23
2023-04-05T13:53:18.069Z,19.83
2023-04-05T13:55:54.765Z,22.87
2023-04-05T13:58:27.881Z,22.29
2023-04-05T14:01:01.378Z,24.11
2023-04-05T14:03:32.734Z,24.14
2023-04-05T14:06:03.160Z,23.57
2023-04-05T14:08:34.724Z,23.83
2023-04-05T14:11:05.417Z,24.80
2023-04-05T14:13:50.737Z,23.89
2023-04-05T14:16:21.277Z,20.16
2023-04-05T14:18:52.254Z,21.37
2023-04-05T14:21:36.740Z,19.58
2023-04-05T14:24:08.376Z,18.13
2023-04-05T14:29:31.355Z,15.27
2023-04-05T14:32:07.552Z,16.67
2023-04-05T14:34:45.353Z,17.12
2023-04-05T14:37:20.753Z,17.68
2023-04-05T14:39:54.499Z,17.04
2023-04-05T14:42:34.054Z,17.69
2023-04-05T14:45:19.291Z,19.21
2023-04-05T14:47:50.288Z,21.48
2023-04-05T14:50:21.524Z,21.68
2023-04-05T14:53:00.874Z,21.84
2023-04-05T14:55:34.290Z,21.93
2023-04-05T14:58:05.847Z,21.89
2023-04-05T15:00:45.443Z,21.38
2023-04-05T15:03:16.709Z,19.45
2023-04-05T15:05:47.682Z,20.79
2023-04-05T15:11:00.635Z,19.65
2023-04-05T15:13:36.353Z,20.76
2023-04-05T15:16:10.893Z,19.35
2023-04-05T15:18:55.905Z,17.70
2023-04-05T15:21:36.322Z,18.06
2023-04-05T15:24:14.814Z,18.03
2023-04-05T15:27:02.895Z,17.10
2023-04-05T15:29:47.890Z,15.10
2023-04-05T15:32:28.348Z,14.37
2023-04-05T15:35:05.727Z,14.05
2023-04-05T15:37:39.064Z,14.48
2023-04-05T15:40:19.346Z,14.03
2023-04-05T15:42:56.725Z,15.19
2023-04-05T15:45:39.908Z,14.30
2023-04-05T15:48:24.838Z,15.07
2023-04-05T15:51:00.611Z,14.22
2023-04-05T15:53:40.120Z,14.74
2023-04-05T15:56:11.521Z,14.61
2023-04-05T15:58:42.948Z,14.81
2023-04-05T16:01:13.658Z,14.25
2023-04-05T16:03:51.154Z,12.43
2023-04-05T16:06:24.704Z,12.00
2023-04-05T16:08:53.768Z,12.24
2023-04-05T16:11:26.553Z,11.56
2023-04-05T16:14:12.621Z,12.11
2023-04-05T16:16:53.306Z,11.91
2023-04-05T16:19:28.347Z,11.69
2023-04-05T16:22:09.199Z,11.68
2023-04-05T16:24:43.176Z,11.28
2023-04-05T16:27:15.373Z,11.56
2023-04-05T16:29:50.200Z,10.82
2023-04-05T16:32:23.588Z,10.74
2023-04-05T16:34:59.731Z,10.67
2023-04-05T16:37:27.784Z,10.29
2023-04-05T16:40:05.062Z,10.25
2023-04-05T16:42:42.016Z,10.13
2023-04-05T16:45:20.636Z,9.95
2023-04-05T16:47:49.240Z,9.93
2023-04-05T16:50:27.019Z,9.92
2023-04-05T16:52:56.837Z,9.84
2023-04-05T16:55:32.938Z,9.66
2023-04-05T16:58:04.411Z,9.91
2023-04-05T17:00:38.035Z,9.44
2023-04-05T17:03:07.966Z,9.37
2023-04-05T17:05:39.423Z,9.40
2023-04-05T17:11:00.602Z,8.88
2023-04-05T17:13:29.596Z,8.90
2023-04-05T17:16:07.496Z,8.59
2023-04-05T17:18:49.952Z,8.84
2023-04-05T17:21:31.256Z,8.74
2023-04-05T17:24:00.382Z,8.57
2023-04-05T17:26:31.407Z,8.56
2023-04-05T17:29:07.130Z,8.61
2023-04-05T17:31:41.117Z,8.34
2023-04-05T17:34:15.272Z,8.30
2023-04-05T17:36:55.055Z,7.94
2023-04-05T17:39:22.928Z,7.93
2023-04-05T17:41:54.687Z,7.88
2023-04-05T17:44:42.602Z,7.81
2023-04-05T17:47:14.358Z,7.94
2023-04-05T17:49:46.856Z,7.90
2023-04-05T17:52:18.277Z,7.72
2023-04-05T17:54:48.154Z,7.40
2023-04-05T17:57:23.129Z,7.27
2023-04-05T17:59:57.580Z,6.89
2023-04-05T18:02:31.885Z,6.79
2023-04-05T18:05:08.967Z,6.63
2023-04-05T18:07:49.386Z,6.25
2023-04-05T18:10:21.301Z,6.39
2023-04-05T18:12:58.109Z,6.31
2023-04-05T18:15:28.465Z,5.96
2023-04-05T18:18:08.365Z,6.11
2023-04-05T18:20:37.672Z,6.31
2023-04-05T18:23:11.362Z,6.42
2023-04-05T18:25:44.759Z,6.34
2023-04-05T18:28:22.632Z,6.42
2023-04-05T18:30:54.544Z,6.16
2023-04-05T18:33:26.062Z,6.02
2023-04-05T18:36:01.976Z,6.18
2023-04-05T18:38:33.354Z,6.08
2023-04-05T18:41:09.663Z,5.56
2023-04-05T18:43:39.946Z,5.97
2023-04-05T18:46:10.647Z,5.69
2023-04-05T18:48:54.371Z,5.65
2023-04-05T18:51:33.966Z,5.37
2023-04-05T18:54:12.945Z,5.26
2023-04-05T18:56:43.272Z,5.27
2023-04-05T18:59:20.427Z,5.02
2023-04-05T19:01:51.566Z,4.83
2023-04-05T19:04:25.527Z,4.68
2023-04-05T19:06:59.273Z,4.49
2023-04-05T19:09:29.844Z,4.39
2023-04-05T19:11:58.792Z,4.28
2023-04-05T19:14:34.977Z,4.34
2023-04-05T19:17:03.624Z,3.79
2023-04-05T19:19:45.319Z,4.11
2023-04-05T19:22:15.779Z,3.93
2023-04-05T19:24:57.312Z,4.23
2023-04-05T19:27:25.036Z,4.39
2023-04-05T19:29:56.561Z,4.41
2023-04-05T19:32:26.204Z,4.14
2023-04-05T19:35:02.698Z,4.15
2023-04-05T19:37:34.067Z,4.13
2023-04-05T19:40:08.611Z,4.43
2023-04-05T19:42:50.234Z,4.64
2023-04-05T19:45:33.283Z,4.50
2023-04-05T19:48:11.200Z,4.37
2023-04-05T19:50:57.312Z,4.41
2023-04-05T19:53:55.866Z,4.36
2023-04-05T19:56:38.850Z,4.38
2023-04-05T19:59:36.200Z,4.33
2023-04-05T20:02:23.561Z,4.06
2023-04-05T20:04:54.722Z,3.99
2023-04-05T20:07:28.400Z,4.06
2023-04-05T20:10:05.799Z,4.16
2023-04-05T20:12:37.252Z,4.06
2023-04-05T20:15:17.978Z,4.00
2023-04-05T20:17:57.252Z,4.09
2023-04-05T20:20:39.421Z,3.70
2023-04-05T20:23:24.524Z,3.71
2023-04-05T20:25:58.004Z,3.45
2023-04-05T20:28:39.068Z,3.62
2023-04-05T20:31:39.119Z,3.64
2023-04-05T20:34:25.443Z,3.50
2023-04-05T20:37:04.483Z,3.47
2023-04-05T20:39:37.672Z,3.50
2023-04-05T20:42:08.406Z,3.40
2023-04-05T20:44:47.060Z,3.15
2023-04-05T20:47:16.274Z,3.34
2023-04-05T20:49:50.069Z,3.09
2023-04-05T20:52:19.617Z,3.11
2023-04-05T20:54:53.611Z,2.82
2023-04-05T20:57:28.440Z,2.73
2023-04-05T21:00:02.869Z,2.61
2023-04-05T21:02:36.547Z,2.35
2023-04-05T21:05:05.724Z,2.46
2023-04-05T21:07:49.431Z,2.03
2023-04-05T21:10:17.258Z,2.32
2023-04-05T21:12:54.086Z,2.15
2023-04-05T21:15:31.488Z,1.60
2023-04-05T21:18:03.207Z,2.06
2023-04-05T21:20:34.185Z,1.90
2023-04-05T21:23:14.670Z,1.85
2023-04-05T21:26:00.941Z,1.93
2023-04-05T21:28:32.868Z,1.81
2023-04-05T21:31:03.862Z,1.71
2023-04-05T21:33:37.357Z,1.42
2023-04-05T21:36:21.713Z,1.58
2023-04-05T21:38:55.406Z,1.38
2023-04-05T21:41:37.375Z,1.46
2023-04-05T21:44:09.949Z,1.42
2023-04-05T21:46:39.381Z,1.82
2023-04-05T21:49:13.040Z,1.69
2023-04-05T21:51:50.490Z,1.70
2023-04-05T21:54:22.090Z,1.48
2023-04-05T21:56:52.762Z,1.66
2023-04-05T21:59:26.160Z,1.67
2023-04-05T22:04:41.982Z,1.36
2023-04-05T22:07:12.799Z,1.21
2023-04-05T22:09:43.537Z,1.02
2023-04-05T22:15:02.815Z,1.12
2023-04-05T22:17:35.960Z,1.13
2023-04-05T22:20:15.485Z,1.06
2023-04-05T22:22:45.886Z,1.03
2023-04-05T22:25:22.314Z,0.99
2023-04-05T22:27:52.750Z,0.74
2023-04-05T22:30:28.003Z,0.95
2023-04-05T22:33:02.641Z,0.89
2023-04-05T22:35:34.043Z,1.02
2023-04-05T22:38:05.079Z,0.96
2023-04-05T22:40:39.572Z,0.94
2023-04-05T22:43:24.422Z,0.86
2023-04-05T22:48:40.016Z,0.79
2023-04-05T22:51:12.423Z,0.59
2023-04-05T22:53:46.761Z,0.63
2023-04-05T22:56:18.630Z,0.60
2023-04-05T22:58:53.467Z,0.71
2023-04-05T23:04:09.091Z,0.63
2023-04-05T23:06:45.973Z,0.70
2023-04-05T23:09:16.997Z,0.57
2023-04-05T23:11:55.968Z,0.48
2023-04-05T23:14:30.856Z,0.28
2023-04-05T23:19:44.523Z,0.57
2023-04-05T23:25:02.379Z,0.21
2023-04-05T23:27:33.036Z,0.45
2023-04-05T23:30:02.958Z,0.33
2023-04-05T23:32:34.678Z,0.21
2023-04-05T23:35:06.362Z,0.33
2023-04-05T23:37:48.130Z,0.05
2023-04-05T23:40:21.499Z,-0.04
2023-04-05T23:42:58.468Z,-0.04
2023-04-05T23:45:29.112Z,-0.06
2023-04-05T23:48:00.380Z,-0.04
2023-04-05T23:50:38.136Z,-0.23
2023-04-05T23:55:53.613Z,0.01
2023-04-05T23:58:24.836Z,0.20
